Time;durP1;ratioP1;P1;durP2;ratioP2;P2;SDS_P1;SDS_P2;PMS_P1;PMS_P2;Temp;Humidity;BMP_temperature;BMP_pressure;BME280_temperature;BME280_humidity;BME280_pressure;Samples;Min_cycle;Max_cycle;Signal;HPM_P1;HPM_P2
2023/07/16 00:02:09;;;;;;;5.37;1.50;;;;;;;17.89;100.00;101063.25;4920332;28;20188;-90
2023/07/16 00:04:35;;;;;;;4.70;1.70;;;;;;;17.87;100.00;101091.69;4921596;29;20632;-94
2023/07/16 00:07:02;;;;;;;6.97;2.50;;;;;;;17.94;100.00;101120.34;4928778;29;20195;-91
2023/07/16 00:09:27;;;;;;;7.03;2.50;;;;;;;17.78;100.00;101129.22;4917694;29;20770;-91
2023/07/16 00:11:53;;;;;;;5.57;2.07;;;;;;;17.94;100.00;101155.63;4923207;29;20514;-88
2023/07/16 00:14:18;;;;;;;5.07;1.90;;;;;;;17.62;100.00;101131.59;4927849;29;20960;-87
2023/07/16 00:16:44;;;;;;;5.33;2.20;;;;;;;17.91;100.00;101218.53;4924982;29;20192;-88
2023/07/16 00:19:14;;;;;;;4.60;2.60;;;;;;;17.82;100.00;101206.38;4923590;29;20996;-89
2023/07/16 00:21:39;;;;;;;11.57;2.50;;;;;;;17.63;100.00;101154.94;4926254;29;20561;-86
2023/07/16 00:24:05;;;;;;;4.60;2.00;;;;;;;17.20;100.00;101087.53;4924737;29;20458;-85
2023/07/16 00:26:30;;;;;;;5.63;2.20;;;;;;;17.86;100.00;101166.03;4924490;29;20695;-89
2023/07/16 00:28:56;;;;;;;12.27;2.70;;;;;;;17.76;100.00;101106.91;4923956;29;20220;-92
2023/07/16 00:31:21;;;;;;;9.03;2.60;;;;;;;17.26;100.00;101054.06;4938158;29;20198;-91
2023/07/16 00:33:47;;;;;;;10.63;2.40;;;;;;;17.72;100.00;101095.72;4923727;29;22477;-92
2023/07/16 00:36:12;;;;;;;7.63;2.30;;;;;;;17.63;100.00;101065.41;4934820;28;20226;-91
2023/07/16 00:38:39;;;;;;;8.27;2.70;;;;;;;17.02;100.00;100957.59;4935159;28;20207;-90
2023/07/16 00:41:05;;;;;;;8.40;2.43;;;;;;;17.74;100.00;101033.91;4934562;28;20223;-92
2023/07/16 00:43:30;;;;;;;11.47;2.47;;;;;;;16.96;100.00;100888.13;4921012;29;20482;-89
2023/07/16 00:45:56;;;;;;;5.77;2.60;;;;;;;17.71;100.00;100991.00;4917527;29;20195;-88
2023/07/16 00:48:21;;;;;;;9.20;2.60;;;;;;;17.70;100.00;100983.91;4918194;29;20204;-92
2023/07/16 00:50:47;;;;;;;7.37;3.03;;;;;;;17.70;100.00;100964.09;4919603;29;20202;-90
2023/07/16 00:53:12;;;;;;;8.13;2.90;;;;;;;17.46;100.00;100914.56;4918131;29;20197;-90
2023/07/16 00:55:38;;;;;;;7.30;2.70;;;;;;;17.13;100.00;100821.25;4920967;29;20219;-91
2023/07/16 00:58:06;;;;;;;6.50;2.30;;;;;;;17.23;100.00;100810.59;4921383;29;20695;-95
2023/07/16 01:00:37;;;;;;;6.40;2.70;;;;;;;17.67;100.00;100889.44;4917034;29;20447;-92
2023/07/16 01:03:05;;;;;;;8.77;2.63;;;;;;;17.76;100.00;100865.44;4919504;29;20436;-91
2023/07/16 01:05:39;;;;;;;6.33;2.30;;;;;;;17.81;100.00;100868.28;4920710;29;20460;-88
2023/07/16 01:08:09;;;;;;;4.40;1.80;;;;;;;17.43;100.00;100761.31;4939543;28;20451;-90
2023/07/16 01:10:36;;;;;;;6.10;2.50;;;;;;;17.62;100.00;100860.38;4921553;29;20443;-94
2023/07/16 01:13:02;;;;;;;6.27;2.80;;;;;;;16.84;100.00;100707.47;4923199;29;20512;-88
2023/07/16 01:15:28;;;;;;;5.53;2.47;;;;;;;17.73;100.00;100885.75;4923593;29;20546;-89
2023/07/16 01:17:53;;;;;;;5.30;2.10;;;;;;;17.73;100.00;100874.91;4936023;28;20453;-90
2023/07/16 01:20:18;;;;;;;5.73;2.00;;;;;;;17.17;100.00;100787.97;4920695;29;20376;-88
2023/07/16 01:23:11;;;;;;;7.37;2.13;;;;;;;17.64;100.00;100898.06;4934311;28;20191;-87
2023/07/16 01:25:57;;;;;;;5.23;2.70;;;;;;;17.49;100.00;100886.97;4919536;29;20222;-89
2023/07/16 01:28:47;;;;;;;11.23;3.03;;;;;;;17.64;100.00;100903.50;4914980;29;20480;-90
2023/07/16 01:31:13;;;;;;;8.70;2.37;;;;;;;17.80;100.00;100870.19;4916123;29;20448;-89
2023/07/16 01:33:41;;;;;;;10.17;2.57;;;;;;;17.40;100.00;100797.88;4920636;29;22380;-87
2023/07/16 01:36:08;;;;;;;7.80;3.13;;;;;;;17.69;100.00;100854.78;4932869;28;20822;-89
2023/07/16 01:38:35;;;;;;;12.10;2.70;;;;;;;17.87;100.00;100831.22;4932914;28;20467;-87
2023/07/16 01:41:00;;;;;;;8.23;3.10;;;;;;;17.89;100.00;100845.34;4920159;29;20442;-90
2023/07/16 01:43:25;;;;;;;7.87;2.90;;;;;;;17.43;100.00;100822.84;4922236;29;20808;-90
2023/07/16 01:45:51;;;;;;;7.57;2.70;;;;;;;17.19;100.00;100804.00;4920990;28;20203;-90
2023/07/16 01:48:28;;;;;;;10.30;2.67;;;;;;;17.52;100.00;100872.91;4922778;29;20194;-94
2023/07/16 01:50:54;;;;;;;9.30;2.67;;;;;;;17.13;100.00;100849.16;4924156;29;20196;-88
2023/07/16 01:53:19;;;;;;;6.93;2.97;;;;;;;16.88;100.00;100787.19;4920902;29;20941;-90
2023/07/16 01:55:45;;;;;;;6.27;3.10;;;;;;;17.42;100.00;100868.13;4921243;29;20227;-89
2023/07/16 01:58:10;;;;;;;9.67;2.17;;;;;;;17.25;100.00;100878.94;4924072;29;20231;-91
2023/07/16 02:00:36;;;;;;;8.63;3.40;;;;;;;17.30;100.00;100932.41;4923812;29;20263;-92
2023/07/16 02:03:02;;;;;;;6.30;2.10;;;;;;;16.91;100.00;100867.16;4919360;29;20231;-91
2023/07/16 02:05:28;;;;;;;12.80;2.80;;;;;;;16.97;100.00;100898.69;4921596;29;20466;-87
2023/07/16 02:07:53;;;;;;;7.33;2.43;;;;;;;16.62;100.00;100864.34;4921296;29;21615;-91
2023/07/16 02:10:19;;;;;;;11.50;2.50;;;;;;;16.73;100.00;100885.19;4937114;28;20294;-89
2023/07/16 02:12:44;;;;;;;6.30;2.17;;;;;;;16.25;100.00;100836.72;4922126;29;20611;-91
2023/07/16 02:15:10;;;;;;;11.53;3.00;;;;;;;17.16;100.00;100973.38;4920725;29;20263;-90
2023/07/16 02:17:35;;;;;;;11.57;3.27;;;;;;;16.45;100.00;100879.69;4919867;29;20197;-90
2023/07/16 02:20:01;;;;;;;9.93;2.30;;;;;;;17.34;100.00;101004.91;4917746;29;20247;-92
2023/07/16 02:22:27;;;;;;;6.50;2.50;;;;;;;17.02;100.00;100999.06;4928424;29;20411;-91
2023/07/16 02:24:52;;;;;;;9.60;2.90;;;;;;;16.94;100.00;101040.06;4923103;29;20191;-88
2023/07/16 02:27:17;;;;;;;9.40;2.93;;;;;;;16.70;100.00;101050.88;4922208;29;20270;-90
2023/07/16 02:29:43;;;;;;;6.07;2.33;;;;;;;16.98;100.00;101062.94;4922719;29;20212;-89
2023/07/16 02:32:08;;;;;;;5.33;2.53;;;;;;;16.71;100.00;101084.19;4923534;29;20191;-90
2023/07/16 02:34:34;;;;;;;6.90;2.80;;;;;;;16.83;100.00;101131.09;4935766;28;20212;-91
2023/07/16 02:36:59;;;;;;;9.80;3.17;;;;;;;16.36;100.00;101044.34;4915519;29;20208;-90
2023/07/16 02:39:25;;;;;;;8.45;2.35;;;;;;;16.73;100.00;101158.75;4933996;28;20204;-88
2023/07/16 02:41:50;;;;;;;5.55;2.50;;;;;;;16.41;100.00;101092.38;4920243;29;20197;-88
2023/07/16 02:44:16;;;;;;;4.83;2.37;;;;;;;16.57;100.00;101132.31;4923554;29;20228;-91
2023/07/16 02:46:41;;;;;;;7.13;2.67;;;;;;;16.81;100.00;101127.81;4921299;29;20247;-88
2023/07/16 02:49:07;;;;;;;6.40;2.40;;;;;;;16.02;100.00;100986.34;4919732;29;20208;-88
2023/07/16 02:51:32;;;;;;;8.33;3.13;;;;;;;16.00;100.00;101002.03;4921219;29;20195;-87
2023/07/16 02:53:58;;;;;;;9.07;3.00;;;;;;;16.75;100.00;101126.03;4920111;29;20281;-87
2023/07/16 02:56:23;;;;;;;6.23;2.70;;;;;;;16.62;100.00;101099.13;4918225;29;20231;-87
2023/07/16 02:58:49;;;;;;;13.37;2.90;;;;;;;16.58;100.00;101077.13;4939125;28;20755;-86
2023/07/16 03:01:14;;;;;;;7.47;3.30;;;;;;;16.69;100.00;101111.53;4921145;29;20224;-87
2023/07/16 03:03:40;;;;;;;6.30;2.90;;;;;;;16.19;100.00;100984.63;4921429;29;20700;-90
2023/07/16 03:06:05;;;;;;;7.70;3.23;;;;;;;16.68;100.00;101011.53;4939152;28;20688;-91
2023/07/16 03:08:31;;;;;;;7.03;3.20;;;;;;;16.61;100.00;100938.53;4922673;29;20211;-88
2023/07/16 03:10:57;;;;;;;9.93;3.43;;;;;;;16.59;100.00;100910.88;4940407;28;20190;-88
2023/07/16 03:13:23;;;;;;;9.53;3.70;;;;;;;16.77;100.00;100928.88;4922531;29;20975;-87
2023/07/16 03:15:49;;;;;;;9.00;2.73;;;;;;;16.77;100.00;100922.66;4922956;29;20484;-90
2023/07/16 03:18:15;;;;;;;7.77;3.90;;;;;;;16.38;100.00;100819.44;4923539;29;20203;-89
2023/07/16 03:20:41;;;;;;;8.10;3.33;;;;;;;16.88;100.00;100902.84;4932669;29;20255;-91
2023/07/16 03:23:06;;;;;;;6.77;3.27;;;;;;;17.06;100.00;100891.00;4921973;29;20439;-89
2023/07/16 03:25:32;;;;;;;10.27;3.97;;;;;;;17.04;100.00;100895.84;4923125;29;20700;-94
2023/07/16 03:27:57;;;;;;;6.10;3.33;;;;;;;17.06;100.00;100907.28;4924389;29;20193;-91
2023/07/16 03:30:22;;;;;;;5.77;3.37;;;;;;;16.77;100.00;100852.22;4942888;28;20721;-93
2023/07/16 03:32:48;;;;;;;10.80;3.37;;;;;;;16.60;100.00;100833.97;4941782;28;20206;-90
2023/07/16 03:35:13;;;;;;;12.13;3.60;;;;;;;16.90;100.00;100869.03;4922502;29;20739;-90
2023/07/16 03:37:39;;;;;;;7.90;3.87;;;;;;;16.62;100.00;100836.47;4923008;29;20192;-90
2023/07/16 03:40:15;;;;;;;7.50;3.80;;;;;;;17.05;100.00;100902.94;4921762;29;20715;-93
2023/07/16 03:42:41;;;;;;;7.77;3.97;;;;;;;16.78;100.00;100834.91;4922679;29;20991;-91
2023/07/16 03:45:07;;;;;;;6.77;3.57;;;;;;;16.23;100.00;100793.69;4940260;28;20447;-91
2023/07/16 03:47:32;;;;;;;7.53;3.50;;;;;;;16.90;100.00;100915.09;4925336;29;20832;-93
2023/07/16 03:49:58;;;;;;;8.73;3.30;;;;;;;16.72;100.00;100907.06;4941470;28;20471;-88
2023/07/16 03:52:24;;;;;;;7.37;3.20;;;;;;;16.53;100.00;100875.81;4918360;29;20207;-89
2023/07/16 03:54:50;;;;;;;8.97;4.00;;;;;;;16.39;100.00;100883.34;4921362;29;20230;-88
2023/07/16 03:57:15;;;;;;;6.53;3.10;;;;;;;16.47;100.00;100923.59;4918728;29;20443;-89
2023/07/16 03:59:42;;;;;;;8.97;3.40;;;;;;;16.61;100.00;100978.34;4922036;29;20208;-87
2023/07/16 04:02:07;;;;;;;15.70;3.27;;;;;;;15.76;100.00;100873.97;4919441;29;20191;-91
2023/07/16 04:04:32;;;;;;;7.27;3.03;;;;;;;16.58;100.00;100976.94;4925653;29;20554;-94
2023/07/16 04:06:58;;;;;;;9.93;3.83;;;;;;;16.45;100.00;100967.13;4923027;28;20198;-88
2023/07/16 04:09:23;;;;;;;7.57;3.70;;;;;;;16.15;100.00;100950.16;4918679;29;20263;-91
2023/07/16 04:11:49;;;;;;;6.63;3.13;;;;;;;16.05;100.00;100929.06;4919530;29;20188;-93
2023/07/16 04:14:14;;;;;;;9.83;3.67;;;;;;;16.71;100.00;100997.53;4922703;29;20187;-91
2023/07/16 04:16:40;;;;;;;6.60;3.23;;;;;;;16.53;100.00;100979.50;4944683;28;20788;-89
2023/07/16 04:19:05;;;;;;;8.53;3.30;;;;;;;16.77;100.00;100977.66;4920837;29;20666;-94
2023/07/16 04:21:31;;;;;;;7.97;3.40;;;;;;;16.67;100.00;100945.72;4939788;28;20751;-93
2023/07/16 04:23:56;;;;;;;8.20;3.90;;;;;;;16.72;100.00;100942.28;4923198;29;20196;-88
2023/07/16 04:26:21;;;;;;;8.20;3.70;;;;;;;16.70;100.00;100925.47;4923159;29;20190;-91
2023/07/16 04:28:47;;;;;;;8.20;4.20;;;;;;;16.50;100.00;100901.47;4933690;28;20247;-89
2023/07/16 04:31:12;;;;;;;11.83;4.00;;;;;;;16.14;100.00;100796.97;4921541;29;20577;-88
2023/07/16 04:33:38;;;;;;;7.10;3.50;;;;;;;16.14;100.00;100824.03;4922364;29;20291;-92
2023/07/16 04:36:03;;;;;;;8.40;3.73;;;;;;;16.35;100.00;100853.22;4922401;29;20267;-89
2023/07/16 04:38:29;;;;;;;9.87;4.40;;;;;;;16.53;100.00;100900.16;4921841;29;20275;-91
2023/07/16 04:40:54;;;;;;;9.63;4.47;;;;;;;16.45;100.00;100937.34;4927850;29;20569;-90
2023/07/16 04:43:19;;;;;;;13.27;4.00;;;;;;;16.65;100.00;100955.13;4923311;29;20204;-89
2023/07/16 04:45:46;;;;;;;9.30;4.07;;;;;;;16.09;100.00;100872.63;4934897;28;20268;-87
2023/07/16 04:48:12;;;;;;;8.00;4.13;;;;;;;15.66;100.00;100825.03;4922338;29;20252;-91
2023/07/16 04:50:39;;;;;;;7.73;4.33;;;;;;;16.57;100.00;100947.34;4922787;29;20440;-87
2023/07/16 04:53:04;;;;;;;10.00;4.20;;;;;;;16.66;100.00;100992.81;4921760;29;20810;-94
2023/07/16 04:55:35;;;;;;;10.87;4.53;;;;;;;16.71;100.00;100997.53;4925432;29;20479;-87
2023/07/16 04:58:01;;;;;;;8.63;4.30;;;;;;;16.62;100.00;101005.16;4922027;29;20254;-90
2023/07/16 05:00:26;;;;;;;11.10;4.17;;;;;;;16.54;100.00;100985.75;4921530;29;20467;-90
2023/07/16 05:02:51;;;;;;;5.40;3.40;;;;;;;16.74;100.00;100999.75;4919710;29;20217;-89
2023/07/16 05:05:17;;;;;;;7.53;3.73;;;;;;;16.60;100.00;101001.03;4924932;29;20183;-91
2023/07/16 05:07:43;;;;;;;9.13;3.90;;;;;;;16.76;100.00;101027.47;4924694;29;20198;-89
2023/07/16 05:10:08;;;;;;;10.20;4.57;;;;;;;16.60;100.00;101009.16;4921877;29;20215;-89
2023/07/16 05:12:34;;;;;;;8.10;4.23;;;;;;;16.76;100.00;101021.19;4921703;29;20263;-89
2023/07/16 05:14:59;;;;;;;8.03;3.63;;;;;;;16.66;100.00;100981.16;4924444;29;20271;-91
2023/07/16 05:17:25;;;;;;;7.60;3.80;;;;;;;16.70;100.00;101001.31;4923637;29;20250;-88
2023/07/16 05:19:50;;;;;;;17.05;5.00;;;;;;;16.91;100.00;101027.81;4923958;29;20203;-91
2023/07/16 05:22:15;;;;;;;10.53;4.17;;;;;;;16.88;100.00;101011.22;4923347;29;20204;-92
2023/07/16 05:24:41;;;;;;;9.23;4.40;;;;;;;16.90;100.00;100976.59;4923898;29;20184;-89
2023/07/16 05:27:06;;;;;;;6.13;4.03;;;;;;;16.85;100.00;100966.44;4923044;29;20687;-93
2023/07/16 05:29:32;;;;;;;8.97;3.90;;;;;;;17.02;100.00;100990.13;4924266;29;20207;-92
2023/07/16 05:31:57;;;;;;;11.20;4.73;;;;;;;17.23;100.00;101015.78;4939287;29;20250;-88
2023/07/16 05:34:22;;;;;;;10.73;4.43;;;;;;;16.79;100.00;100962.00;4926330;29;20271;-89
2023/07/16 05:36:48;;;;;;;10.87;4.60;;;;;;;17.15;100.00;100998.81;4922138;29;20276;-92
2023/07/16 05:39:13;;;;;;;12.63;4.03;;;;;;;17.20;100.00;101014.34;4924497;29;20692;-91
2023/07/16 05:41:40;;;;;;;10.03;4.30;;;;;;;16.81;100.00;100954.47;4922813;29;20210;-86
2023/07/16 05:44:05;;;;;;;11.87;4.03;;;;;;;16.73;100.00;100962.91;4940387;28;20251;-88
2023/07/16 05:46:31;;;;;;;12.60;4.70;;;;;;;17.31;100.00;101026.25;4922488;29;20440;-92
2023/07/16 05:48:56;;;;;;;8.43;4.00;;;;;;;17.11;100.00;100980.56;4925629;29;20270;-91
2023/07/16 05:51:22;;;;;;;10.60;4.43;;;;;;;17.09;100.00;100974.53;4923905;29;20243;-93
2023/07/16 05:53:47;;;;;;;7.93;4.73;;;;;;;17.04;100.00;100961.72;4919285;29;20248;-90
2023/07/16 05:56:13;;;;;;;9.37;3.90;;;;;;;17.42;100.00;101013.75;4916101;29;20975;-94
2023/07/16 05:58:40;;;;;;;5.73;3.60;;;;;;;17.02;100.00;100922.38;4935237;28;20215;-93
2023/07/16 06:01:05;;;;;;;11.87;4.70;;;;;;;17.50;100.00;100997.91;4937000;28;20192;-92
2023/07/16 06:03:31;;;;;;;8.93;4.40;;;;;;;16.96;100.00;100885.41;4921690;29;20498;-87
2023/07/16 06:05:56;;;;;;;11.50;4.00;;;;;;;17.28;100.00;100938.09;4927704;28;20227;-89
2023/07/16 06:08:22;;;;;;;12.83;3.70;;;;;;;17.39;100.00;100952.69;4927584;29;20188;-89
2023/07/16 06:10:47;;;;;;;10.50;4.33;;;;;;;17.59;100.00;101001.06;4925556;29;20623;-92
2023/07/16 06:13:13;;;;;;;10.73;3.90;;;;;;;17.43;100.00;100975.53;4920856;29;20191;-88
2023/07/16 06:15:38;;;;;;;10.27;4.20;;;;;;;17.60;100.00;100975.59;4923913;29;21003;-91
2023/07/16 06:18:04;;;;;;;9.53;3.40;;;;;;;16.81;100.00;100881.31;4938579;28;20173;-89
2023/07/16 06:20:29;;;;;;;12.40;4.30;;;;;;;17.58;100.00;100999.41;4926653;29;20192;-88
2023/07/16 06:22:55;;;;;;;6.50;3.17;;;;;;;17.56;100.00;100996.94;4936758;29;20211;-89
2023/07/16 06:25:20;;;;;;;5.30;2.93;;;;;;;17.82;100.00;101011.84;4922737;29;20192;-92
2023/07/16 06:27:45;;;;;;;9.43;4.00;;;;;;;17.86;100.00;101008.66;4940020;29;20195;-91
2023/07/16 06:30:11;;;;;;;11.23;3.40;;;;;;;17.49;100.00;100990.81;4923961;29;20223;-87
2023/07/16 06:32:36;;;;;;;7.10;3.40;;;;;;;17.33;100.00;100951.75;4937587;29;20262;-88
2023/07/16 06:35:02;;;;;;;6.50;3.53;;;;;;;17.25;100.00;100916.06;4919923;29;20207;-90
2023/07/16 06:37:27;;;;;;;5.50;3.50;;;;;;;17.96;100.00;101027.81;4924470;29;20202;-89
2023/07/16 06:39:53;;;;;;;8.40;3.83;;;;;;;17.94;100.00;101000.13;4925905;29;20211;-89
2023/07/16 06:42:18;;;;;;;8.07;3.80;;;;;;;17.85;100.00;100978.00;4923945;29;20199;-92
2023/07/16 06:44:44;;;;;;;11.37;3.40;;;;;;;17.48;100.00;100937.66;4919252;29;20683;-86
2023/07/16 06:47:09;;;;;;;7.53;3.83;;;;;;;17.94;100.00;101005.56;4918073;29;20196;-89
2023/07/16 06:49:35;;;;;;;9.57;3.80;;;;;;;18.09;100.00;101007.72;4921549;29;20789;-94
2023/07/16 06:52:01;;;;;;;8.03;3.80;;;;;;;18.05;100.00;101001.94;4919704;29;20188;-88
2023/07/16 06:54:27;;;;;;;8.33;3.57;;;;;;;18.27;100.00;101027.31;4920619;29;20192;-90
2023/07/16 06:56:52;;;;;;;7.70;3.27;;;;;;;18.26;100.00;101014.81;4922209;29;20467;-91
2023/07/16 06:59:18;;;;;;;11.60;4.00;;;;;;;18.26;100.00;100979.50;4926590;29;20315;-94
2023/07/16 07:01:43;;;;;;;8.10;4.00;;;;;;;17.54;100.00;100893.31;4922415;29;20194;-90
2023/07/16 07:04:08;;;;;;;9.13;3.70;;;;;;;17.78;100.00;100894.00;4923734;29;20897;-90
2023/07/16 07:06:34;;;;;;;8.70;4.80;;;;;;;18.35;100.00;100977.19;4938177;28;20541;-88
2023/07/16 07:08:59;;;;;;;8.40;3.80;;;;;;;18.23;100.00;101036.19;4931356;29;20227;-90
2023/07/16 07:11:25;;;;;;;9.10;3.70;;;;;;;17.62;100.00;100911.91;4922283;29;20757;-88
2023/07/16 07:13:52;;;;;;;8.70;4.63;;;;;;;18.24;100.00;101003.34;4945374;29;20195;-86
2023/07/16 07:16:17;;;;;;;7.30;3.60;;;;;;;17.84;100.00;100941.88;4942155;29;20295;-92
2023/07/16 07:18:43;;;;;;;9.60;3.90;;;;;;;17.89;100.00;100929.47;4923979;29;20535;-90
2023/07/16 07:21:08;;;;;;;9.30;3.80;;;;;;;18.30;100.00;100993.41;4927460;29;20305;-89
2023/07/16 07:23:34;;;;;;;10.30;4.03;;;;;;;18.36;100.00;100976.13;4921503;29;20243;-91
2023/07/16 07:25:59;;;;;;;15.53;4.33;;;;;;;18.58;100.00;101016.13;4926379;29;20219;-89
2023/07/16 07:28:27;;;;;;;10.53;4.80;;;;;;;18.19;100.00;100962.53;4925364;29;20215;-91
2023/07/16 07:30:52;;;;;;;11.53;4.23;;;;;;;18.44;100.00;101021.06;4940775;28;20200;-88
2023/07/16 07:33:17;;;;;;;10.83;4.20;;;;;;;18.41;100.00;100983.53;4924310;29;20939;-87
2023/07/16 07:35:43;;;;;;;13.50;4.30;;;;;;;18.26;100.00;101008.56;4924214;29;20703;-91
2023/07/16 07:38:08;;;;;;;10.40;3.90;;;;;;;18.57;100.00;101009.03;4927071;29;20561;-91
2023/07/16 07:40:34;;;;;;;9.37;4.50;;;;;;;18.43;100.00;101009.38;4925029;28;20219;-95
2023/07/16 07:42:59;;;;;;;8.40;4.13;;;;;;;18.30;100.00;101015.13;4927475;29;20675;-94
2023/07/16 07:45:25;;;;;;;8.57;4.57;;;;;;;18.38;100.00;101011.19;4941679;28;20187;-91
2023/07/16 07:47:51;;;;;;;8.93;4.80;;;;;;;18.55;100.00;101020.16;4928523;29;20283;-88
2023/07/16 07:50:16;;;;;;;11.87;4.20;;;;;;;18.09;100.00;100889.09;4923338;29;20458;-91
2023/07/16 07:52:42;;;;;;;9.77;5.07;;;;;;;18.74;100.00;100990.84;4924183;29;20297;-88
2023/07/16 07:55:07;;;;;;;10.37;4.57;;;;;;;18.71;100.00;100973.13;4926416;29;20270;-90
2023/07/16 07:57:33;;;;;;;9.40;4.13;;;;;;;18.72;100.00;100935.94;4930280;29;20661;-92
2023/07/16 07:59:59;;;;;;;7.20;4.00;;;;;;;18.41;100.00;100877.63;4929745;29;20222;-86
2023/07/16 08:02:25;;;;;;;9.63;4.60;;;;;;;18.80;100.00;100934.69;4929587;29;20208;-88
2023/07/16 08:04:54;;;;;;;9.17;4.20;;;;;;;18.64;100.00;100899.13;4924861;29;20445;-90
2023/07/16 08:07:20;;;;;;;13.07;5.27;;;;;;;18.96;100.00;100923.78;4925045;29;20184;-93
2023/07/16 08:09:46;;;;;;;6.93;4.27;;;;;;;18.97;100.00;100927.31;4926303;29;25128;-89
2023/07/16 08:12:12;;;;;;;10.40;4.37;;;;;;;18.71;100.00;100890.78;4926824;29;20198;-88
2023/07/16 08:14:38;;;;;;;9.90;3.53;;;;;;;19.25;100.00;100923.56;4925471;29;20464;-91
2023/07/16 08:17:03;;;;;;;6.40;4.40;;;;;;;19.21;100.00;100911.56;4926634;29;21012;-91
2023/07/16 08:19:29;;;;;;;8.37;3.97;;;;;;;19.24;100.00;100921.09;4923749;29;20211;-88
2023/07/16 08:21:55;;;;;;;5.73;3.40;;;;;;;19.37;100.00;100907.94;4926236;29;20196;-89
2023/07/16 08:24:20;;;;;;;8.17;4.03;;;;;;;19.20;100.00;100867.22;4924936;29;20298;-94
2023/07/16 08:26:46;;;;;;;12.13;4.73;;;;;;;19.24;100.00;100889.31;4939653;28;20188;-92
2023/07/16 08:29:11;;;;;;;14.23;4.87;;;;;;;19.12;100.00;100889.47;4923476;29;20208;-91
2023/07/16 08:31:36;;;;;;;8.30;4.10;;;;;;;19.26;100.00;100899.91;4938733;28;20195;-90
2023/07/16 08:34:02;;;;;;;8.33;3.63;;;;;;;19.23;100.00;100851.47;4925349;29;20542;-89
2023/07/16 08:36:27;;;;;;;8.80;4.10;;;;;;;18.79;100.00;100806.16;4922575;29;20275;-90
2023/07/16 08:38:53;;;;;;;9.40;3.30;;;;;;;19.27;100.00;100905.13;4920466;29;20216;-89
2023/07/16 08:41:18;;;;;;;5.33;3.50;;;;;;;19.31;100.00;100898.06;4927217;29;20187;-91
2023/07/16 08:43:47;;;;;;;6.77;4.13;;;;;;;19.34;100.00;100894.03;4934153;29;20192;-94
2023/07/16 08:46:13;;;;;;;8.80;3.90;;;;;;;19.67;100.00;100908.53;4924665;29;20188;-91
2023/07/16 08:48:38;;;;;;;7.13;3.63;;;;;;;19.68;100.00;100880.25;4939604;28;20451;-91
2023/07/16 08:51:06;;;;;;;6.07;4.03;;;;;;;19.65;100.00;100892.47;4924827;29;20435;-90
2023/07/16 08:53:31;;;;;;;6.00;3.93;;;;;;;19.67;100.00;100913.97;4924351;29;20247;-92
2023/07/16 08:55:57;;;;;;;6.83;3.70;;;;;;;19.66;100.00;100901.47;4924567;29;20479;-91
2023/07/16 08:58:23;;;;;;;7.87;3.90;;;;;;;19.58;100.00;100925.28;4927156;29;20537;-89
2023/07/16 09:00:49;;;;;;;7.30;3.80;;;;;;;19.66;100.00;100924.03;4924513;29;20463;-90
2023/07/16 09:03:18;;;;;;;8.87;3.87;;;;;;;18.94;100.00;100919.66;4921186;29;20469;-90
2023/07/16 09:05:46;;;;;;;7.77;3.93;;;;;;;18.83;100.00;100905.09;4921840;29;20532;-86
2023/07/16 09:08:13;;;;;;;7.57;4.07;;;;;;;18.95;100.00;100949.31;4922523;29;20455;-87
2023/07/16 09:10:40;;;;;;;8.30;3.77;;;;;;;19.05;100.00;100924.16;4924068;29;20438;-88
2023/07/16 09:13:05;;;;;;;10.10;4.50;;;;;;;19.16;100.00;100927.81;4923283;29;20471;-88
2023/07/16 09:15:31;;;;;;;7.60;4.33;;;;;;;18.77;100.00;100851.78;4925092;29;20476;-89
2023/07/16 09:17:57;;;;;;;8.40;4.63;;;;;;;19.34;100.00;100883.97;4924825;29;20760;-88
2023/07/16 09:20:25;;;;;;;8.50;4.03;;;;;;;19.34;100.00;100938.34;4935944;29;20216;-91
2023/07/16 09:22:55;;;;;;;6.53;3.63;;;;;;;18.92;100.00;100864.75;4927285;29;20963;-87
2023/07/16 09:25:28;;;;;;;7.07;3.60;;;;;;;18.82;100.00;100864.63;4922415;29;20432;-86
2023/07/16 09:27:54;;;;;;;5.70;3.70;;;;;;;19.36;100.00;100960.69;4925020;29;20817;-85
2023/07/16 09:30:20;;;;;;;9.23;4.17;;;;;;;19.52;100.00;100931.75;4922268;29;20823;-87
2023/07/16 09:32:46;;;;;;;7.80;4.40;;;;;;;19.04;100.00;100830.09;4923915;29;20497;-89
2023/07/16 09:35:16;;;;;;;6.37;3.93;;;;;;;19.97;100.00;100927.88;4924792;29;20219;-87
2023/07/16 09:37:42;;;;;;;8.07;3.57;;;;;;;19.68;100.00;100877.53;4939250;29;20513;-88
2023/07/16 09:40:12;;;;;;;7.90;4.40;;;;;;;19.68;100.00;100891.16;4926614;29;20992;-84
2023/07/16 09:42:42;;;;;;;8.40;4.15;;;;;;;19.99;100.00;100949.38;4921575;29;20233;-87
2023/07/16 09:45:17;;;;;;;8.10;3.90;;;;;;;20.02;100.00;100948.88;4921414;29;20458;-85
2023/07/16 09:47:43;;;;;;;8.80;4.00;;;;;;;19.96;100.00;100950.75;4923330;29;21056;-89
2023/07/16 09:50:09;;;;;;;6.80;3.40;;;;;;;19.81;100.00;100923.34;4922665;29;21387;-85
2023/07/16 09:52:34;;;;;;;10.03;3.93;;;;;;;19.71;100.00;100931.44;4923333;29;20195;-89
2023/07/16 09:55:04;;;;;;;8.00;4.40;;;;;;;19.90;100.00;100945.47;4925701;29;20482;-85
2023/07/16 09:57:36;;;;;;;8.03;3.67;;;;;;;19.95;100.00;100968.13;4923230;29;20212;-88
2023/07/16 10:00:07;;;;;;;10.50;4.20;;;;;;;19.88;100.00;100974.88;4943197;28;20995;-91
2023/07/16 10:02:36;;;;;;;10.20;3.90;;;;;;;19.89;100.00;100977.34;4922147;29;20528;-86
2023/07/16 10:05:37;;;;;;;8.20;3.77;;;;;;;19.99;100.00;100966.56;4940461;28;21064;-90
2023/07/16 10:08:03;;;;;;;6.13;4.30;;;;;;;19.57;100.00;100904.59;4931142;29;20460;-85
2023/07/16 10:11:01;;;;;;;7.30;3.30;;;;;;;20.02;100.00;101004.16;4929398;29;21444;-89
2023/07/16 10:13:27;;;;;;;10.53;4.60;;;;;;;19.60;100.00;100998.50;4908523;29;20958;-94
2023/07/16 10:15:58;;;;;;;12.93;4.63;;;;;;;19.69;100.00;101016.03;4928605;29;20463;-87
2023/07/16 10:18:30;;;;;;;7.03;4.00;;;;;;;19.55;100.00;100982.94;4925361;29;20222;-90
2023/07/16 10:21:08;;;;;;;7.23;3.90;;;;;;;19.69;100.00;101012.50;4940187;29;20455;-94
2023/07/16 10:23:41;;;;;;;6.93;3.87;;;;;;;19.19;100.00;100977.06;4931836;29;20452;-87
2023/07/16 10:26:11;;;;;;;9.17;4.40;;;;;;;19.37;100.00;100983.28;4925411;29;20446;-89
2023/07/16 10:28:38;;;;;;;7.55;3.70;;;;;;;19.58;100.00;101025.94;4938969;28;20477;-90
2023/07/16 10:31:03;;;;;;;5.50;3.70;;;;;;;18.95;100.00;100900.41;4928540;29;20936;-90
2023/07/16 10:33:29;;;;;;;7.90;4.13;;;;;;;19.37;100.00;100980.56;4925773;29;20502;-91
2023/07/16 10:35:57;;;;;;;10.80;3.77;;;;;;;18.88;100.00;100918.78;4926661;29;20514;-93
2023/07/16 10:38:23;;;;;;;6.13;4.20;;;;;;;19.84;100.00;101020.81;4928054;29;20227;-92
2023/07/16 10:40:49;;;;;;;5.90;3.83;;;;;;;20.05;100.00;101017.25;4922565;29;20450;-93
2023/07/16 10:43:14;;;;;;;10.73;6.20;;;;;;;19.40;100.00;100912.84;4925648;29;20673;-90
2023/07/16 10:45:40;;;;;;;7.80;3.57;;;;;;;19.79;100.00;100941.88;4926215;29;20217;-87
2023/07/16 10:48:06;;;;;;;7.17;4.97;;;;;;;20.04;100.00;100976.66;4923709;29;20576;-86
2023/07/16 10:50:35;;;;;;;8.77;5.73;;;;;;;19.55;100.00;100917.63;4924856;29;21228;-90
2023/07/16 10:53:01;;;;;;;9.00;4.97;;;;;;;20.27;100.00;101019.88;4924635;29;20263;-87
2023/07/16 10:55:28;;;;;;;8.70;4.57;;;;;;;20.07;100.00;101015.06;4923661;29;20506;-93
2023/07/16 10:57:54;;;;;;;4.87;3.43;;;;;;;19.55;100.00;100946.75;4919837;29;20506;-82
2023/07/16 11:00:21;;;;;;;4.40;2.90;;;;;;;20.07;100.00;101020.50;4915349;29;20478;-85
2023/07/16 11:02:47;;;;;;;4.50;3.37;;;;;;;19.99;100.00;101018.28;4915646;29;20188;-84
2023/07/16 11:05:16;;;;;;;5.50;3.57;;;;;;;20.02;100.00;101015.03;4921924;29;20451;-87
2023/07/16 11:07:46;;;;;;;6.37;3.40;;;;;;;20.05;100.00;101017.25;4921619;29;20196;-86
2023/07/16 11:10:12;;;;;;;10.20;3.87;;;;;;;20.29;100.00;101039.53;4924547;29;20535;-85
2023/07/16 11:12:37;;;;;;;11.90;6.47;;;;;;;20.28;100.00;101026.19;4919155;29;20454;-88